Terminal Aerodrome Forecast
Issued by NWS

Home | Current Version | Previous Version | Graphics & Text | Print | Product List | Glossary On
Versions: 1 2 3 4 5 6 7 8 9 10 11 12 13
601
FTUS43 KBIS 290526
TAFDIK
TAF
KDIK 290526Z 2906/3006 17005KT P6SM SCT180
     FM291500 21008KT P6SM FEW060 SCT150=

USA.gov is the U.S. government's official web portal to all federal, state and local government web resources and services.